Aérodrome :
LOGIN :

S'inscrire | Disclaimer

   EN    FR    IT 

 










Légende :    VFR   VFR Marginal   IFR   IFR Intensif   IFR Très Intensif
Visi : 
Plafond : 
>= 8 km
>= 3000ft
5 à 8 km
1000 à 3000 ft
1500m à 5 km
500 à 1000 ft
800 à 1500m
200 à 500 ft
< 800m
< 200 ft
Symboles :   Orages  Brouillard  Fortes neiges  Fortes précipitations  Vent > 20 kt
SIGMETs :   Divers  Orages  Givrage  Turbulence  Onde Orograph.  Cendres Volcan.






- Altitude de l'aérodrome : 100 ft


EBDT - Schaffen

DERNIER METAR :
  • 301555Z AUTO 28010KT 9999 -RA FEW017/// OVC033/// 14/13 Q1013 BLU

METARs EXPIRÉS :
  • 301525Z AUTO 27014KT 9999 -RA OVC019/// 15/12 Q1013 WHT
  • 301507Z AUTO 28013KT 9999 OVC020/// 17/12 Q1012 WHT
  • 301455Z AUTO 28011KT 9999 OVC027/// 17/12 Q1012 BLU
  • 301425Z AUTO 28011KT 9999 OVC031/// 18/12 Q1012 BLU
  • 301355Z AUTO 28012KT 9999 OVC032/// 19/13 Q1012 BLU

TAF TAF EBDT
Valide du 30 à 10h jusqu'au 30 à 19h UTC


300841Z 3010/3019 27005KT 9999 FEW025 SCT080
TEMPO 3010/3016 27010G25KT 4000 -SHRA SCT024TCU OVC080
TEMPO 3010/3014 VRB12G27KT 2000 +SHRA BKN020CB OVC080
TEMPO 3010/3014 VRB15G30KT 1500 TSRA BKN015CB OVC080



MET'MAP, la Météo Aéronautique d'un coup d'oeil ! - Copyright ORBIFLY Décembre 2007 - Disclaimer

ORBIFLY MET'MAP TEAM :

Programmation & Développement : Alexandra Zaïnal
Sur une idée originale de : Baudouin d'Aumeries
Soutien technique & logistique : Manuel Goepfert
Assistance : Marc-Olivier Méhu




SOURCES & CREDITS :

   NOAA